Walsall, United Kingdom
Current Conditions -  °F | °C
As of 12:50 PM on Friday 19 Dec 2014 (Local Time) from EGBB Reporting Station
Scattered Clouds Scattered Clouds  
Wind Chill:   Ceiling: Unl
Heat Index:   Visibility: 6mi
Dew Point:   Wind: 13mph
Humidity: 62%   Direction: 280°W
Pressure: 29.97"   Gusts: NA
Location:  52.59°N, 1.98°W
Report Text: EGBB 191250Z 28011KT 9999 SCT030 SCT044 08/01 Q1015
Loading
Personal Weather Stations






























Interactive Weather Map New forecast layout! Learn more

10-Day Weather Forecast

Advertisements
Track Severe Weather on mobile